TAF LDZA 230525Z 2306/2406 23008KT CAVOK
                 TX35/2314Z TN19/2402Z
    PROB30 TEMPO 2306/2309 TSRA FEW035CB SCT040
    PROB40 TEMPO 2313/2317 VRB15G30KT 3000 TSRA SCT035CB BKN040
    PROB30 TEMPO 2314/2316 1000 TSGR SCT030CB BKN035
    PROB30 TEMPO 2317/2322 TSRA FEW035CB SCT040
           BECMG 2317/2319 VRB02KT=
TAF LDZA 222325Z 2300/2324 24005KT CAVOK
                 TX35/2314Z TN19/2303Z
    PROB30 TEMPO 2303/2306 TSRA FEW030CB SCT040
           BECMG 2305/2307 23009KT
    PROB30 TEMPO 2313/2317 VRB15G30KT 3000 TSRA FEW040CB BKN045
           BECMG 2316/2318 VRB02KT=
TAF LDZA 221725Z 2218/2318 23007KT CAVOK
                 TX36/2314Z TN20/2303Z
           TEMPO 2306/2314 23015KT
           BECMG 2314/2316 05015KT
    PROB30 TEMPO 2314/2317 05020G30KT
    PROB30 TEMPO 2314/2318 3000 TSRA FEW050CB
           BECMG 2316/2318 VRB02KT=
TAF LDZA 221125Z 2212/2312 23006KT CAVOK
                 TX34/2214Z TN20/2303Z
           TEMPO 2306/2312 23010KT=
TAF LDZA 220525Z 2206/2306 25004KT CAVOK
                 TX34/2214Z TN21/2303Z
           TEMPO 2206/2306 23006KT
    PROB30 TEMPO 2211/2216 VRB20KT TSRA FEW045CB SCT045
    PROB30 TEMPO 2221/2306 23010KT=
TAF LDZA 212325Z 2200/2224 26005KT CAVOK
                 TX34/2213Z TN16/2203Z
    PROB30 TEMPO 2200/2203 3000 MIFG BR
           BECMG 2212/2214 23008KT
    PROB30 TEMPO 2213/2216 TSRA FEW040CB =